Time;durP1;ratioP1;P1;durP2;ratioP2;P2;SDS_P1;SDS_P2;PMS_P1;PMS_P2;Temp;Humidity;BMP_temperature;BMP_pressure;BME280_temperature;BME280_humidity;BME280_pressure;Samples;Min_cycle;Max_cycle;Signal;HPM_P1;HPM_P2
2024/03/06 00:01:19;;;;;;;46.20;35.42;;;;;;;;;;5020765;28;25095;-66
2024/03/06 00:03:45;;;;;;;48.58;37.90;;;;;;;;;;5024191;28;25065;-68
2024/03/06 00:06:11;;;;;;;46.88;38.47;;;;;;;;;;5022289;28;25116;-69
2024/03/06 00:08:37;;;;;;;51.47;38.35;;;;;;;;;;5017366;28;25091;-66
2024/03/06 00:11:03;;;;;;;52.03;39.83;;;;;;;;;;5004124;28;25149;-65
2024/03/06 00:13:29;;;;;;;55.35;40.95;;;;;;;;;;4998171;28;25089;-65
2024/03/06 00:15:55;;;;;;;54.33;42.42;;;;;;;;;;5001470;28;25069;-67
2024/03/06 00:18:21;;;;;;;54.38;41.95;;;;;;;;;;4992308;28;25078;-64
2024/03/06 00:20:47;;;;;;;56.70;42.72;;;;;;;;;;4999917;28;25077;-66
2024/03/06 00:23:13;;;;;;;54.08;42.72;;;;;;;;;;4994163;28;25049;-66
2024/03/06 00:25:39;;;;;;;57.08;41.22;;;;;;;;;;4999993;28;25084;-66
2024/03/06 00:28:06;;;;;;;57.13;42.63;;;;;;;;;;4997578;28;25055;-67
2024/03/06 00:30:32;;;;;;;60.35;42.42;;;;;;;;;;4998749;28;25068;-66
2024/03/06 00:32:58;;;;;;;54.65;41.70;;;;;;;;;;4992946;28;25053;-67
2024/03/06 00:35:24;;;;;;;52.13;41.33;;;;;;;;;;4999752;28;25059;-65
2024/03/06 00:37:53;;;;;;;53.50;40.58;;;;;;;;;;4998248;28;25053;-67
2024/03/06 00:40:19;;;;;;;53.80;41.00;;;;;;;;;;4997962;28;25073;-66
2024/03/06 00:42:45;;;;;;;54.35;41.30;;;;;;;;;;5003617;28;25069;-67
2024/03/06 00:45:11;;;;;;;61.20;43.42;;;;;;;;;;5000371;28;25051;-68
2024/03/06 00:47:37;;;;;;;55.67;42.88;;;;;;;;;;4994330;28;25117;-64
2024/03/06 00:50:07;;;;;;;52.47;40.72;;;;;;;;;;4995331;28;25095;-66
2024/03/06 00:52:33;;;;;;;53.42;41.50;;;;;;;;;;4995485;28;25078;-66
2024/03/06 00:55:00;;;;;;;55.35;42.40;;;;;;;;;;5013525;28;25098;-67
2024/03/06 00:57:26;;;;;;;58.00;43.50;;;;;;;;;;4994159;28;25084;-65
2024/03/06 00:59:52;;;;;;;50.22;40.47;;;;;;;;;;4998987;28;25130;-66
2024/03/06 01:02:18;;;;;;;60.63;43.53;;;;;;;;;;4996725;28;25084;-66
2024/03/06 01:04:44;;;;;;;55.90;40.45;;;;;;;;;;5003497;28;25074;-67
2024/03/06 01:07:10;;;;;;;56.25;43.20;;;;;;;;;;5004225;28;25079;-68
2024/03/06 01:09:36;;;;;;;56.53;41.85;;;;;;;;;;4993967;28;25043;-67
2024/03/06 01:12:02;;;;;;;52.00;40.95;;;;;;;;;;5006202;28;25086;-65
2024/03/06 01:14:28;;;;;;;57.40;41.70;;;;;;;;;;4999315;28;25164;-66
2024/03/06 01:16:54;;;;;;;63.95;46.03;;;;;;;;;;4999613;28;25131;-66
2024/03/06 01:19:20;;;;;;;61.88;45.13;;;;;;;;;;5000342;28;25068;-67
2024/03/06 01:21:46;;;;;;;58.60;44.80;;;;;;;;;;4998242;28;25157;-66
2024/03/06 01:24:12;;;;;;;70.75;46.70;;;;;;;;;;4999951;28;25061;-70
2024/03/06 01:26:38;;;;;;;60.17;43.40;;;;;;;;;;4994442;28;25062;-67
2024/03/06 01:29:04;;;;;;;64.32;45.67;;;;;;;;;;4994030;28;25063;-66
2024/03/06 01:31:30;;;;;;;89.65;57.83;;;;;;;;;;4994526;28;25138;-66
2024/03/06 01:33:56;;;;;;;74.38;50.10;;;;;;;;;;4994987;28;25078;-66
2024/03/06 01:36:22;;;;;;;73.82;51.50;;;;;;;;;;5000140;28;25087;-68
2024/03/06 01:38:48;;;;;;;66.88;49.15;;;;;;;;;;4992754;28;25082;-66
2024/03/06 01:41:15;;;;;;;69.43;46.85;;;;;;;;;;4992387;28;25152;-68
2024/03/06 01:43:40;;;;;;;78.97;50.13;;;;;;;;;;4994662;28;25139;-67
2024/03/06 01:46:07;;;;;;;70.80;47.83;;;;;;;;;;4993035;28;25059;-67
2024/03/06 01:48:33;;;;;;;67.15;48.10;;;;;;;;;;4998711;28;25053;-66
2024/03/06 01:51:00;;;;;;;77.88;50.95;;;;;;;;;;4996226;28;25117;-64
2024/03/06 01:53:27;;;;;;;64.55;46.60;;;;;;;;;;4993298;28;25057;-66
2024/03/06 01:55:53;;;;;;;80.30;51.45;;;;;;;;;;4994829;28;25159;-66
2024/03/06 01:58:21;;;;;;;92.25;56.30;;;;;;;;;;4991683;28;25139;-68
2024/03/06 02:00:47;;;;;;;66.05;47.38;;;;;;;;;;4991362;28;25157;-67
2024/03/06 02:03:13;;;;;;;68.47;48.45;;;;;;;;;;4991695;28;25062;-65
2024/03/06 02:05:41;;;;;;;78.85;52.95;;;;;;;;;;4996847;28;25070;-65
2024/03/06 02:08:08;;;;;;;84.15;55.25;;;;;;;;;;4993676;28;25075;-67
2024/03/06 02:10:34;;;;;;;71.00;48.75;;;;;;;;;;4990519;28;25056;-66
2024/03/06 02:13:00;;;;;;;83.72;54.72;;;;;;;;;;4994887;28;25096;-65
2024/03/06 02:15:26;;;;;;;66.03;47.88;;;;;;;;;;5005136;28;25106;-66
2024/03/06 02:17:53;;;;;;;64.78;46.60;;;;;;;;;;5012793;28;25058;-66
2024/03/06 02:20:25;;;;;;;80.38;55.92;;;;;;;;;;5026968;28;25064;-67
2024/03/06 02:22:51;;;;;;;;;;;;;;;;;;5023401;28;25067;-67
2024/03/06 02:25:19;;;;;;;72.45;48.58;;;;;;;;;;5026786;28;24089;-65
2024/03/06 02:27:45;;;;;;;77.43;52.28;;;;;;;;;;5007464;28;25118;-66
2024/03/06 02:30:11;;;;;;;73.00;50.33;;;;;;;;;;4998092;28;25087;-66
2024/03/06 02:32:37;;;;;;;85.50;56.20;;;;;;;;;;4996916;28;25142;-67
2024/03/06 02:35:03;;;;;;;86.00;55.55;;;;;;;;;;5001138;28;25084;-65
2024/03/06 02:37:30;;;;;;;91.88;59.33;;;;;;;;;;5005542;28;25109;-66
2024/03/06 02:39:55;;;;;;;88.18;56.85;;;;;;;;;;5003732;28;25063;-66
2024/03/06 02:42:21;;;;;;;71.45;49.22;;;;;;;;;;5006880;28;25075;-67
2024/03/06 02:44:48;;;;;;;94.25;58.33;;;;;;;;;;5009765;28;25122;-65
2024/03/06 02:47:14;;;;;;;75.88;49.05;;;;;;;;;;5000837;28;25086;-65
2024/03/06 02:49:40;;;;;;;87.93;56.88;;;;;;;;;;5001040;28;25177;-67
2024/03/06 02:52:06;;;;;;;77.65;51.40;;;;;;;;;;5004299;28;25072;-68
2024/03/06 02:54:32;;;;;;;78.75;49.72;;;;;;;;;;4997935;28;25156;-65
2024/03/06 02:56:58;;;;;;;85.47;54.50;;;;;;;;;;4998980;28;25055;-67
2024/03/06 02:59:24;;;;;;;76.25;48.88;;;;;;;;;;4995155;28;25138;-66
2024/03/06 03:01:50;;;;;;;73.40;50.92;;;;;;;;;;4996449;28;25127;-66
2024/03/06 03:04:16;;;;;;;72.25;46.92;;;;;;;;;;4994085;28;25064;-66
2024/03/06 03:06:42;;;;;;;77.63;49.30;;;;;;;;;;4997433;28;25067;-67
2024/03/06 03:09:11;;;;;;;85.97;53.67;;;;;;;;;;4995920;28;25074;-69
2024/03/06 03:11:37;;;;;;;86.57;55.15;;;;;;;;;;5000843;28;25052;-65
2024/03/06 03:14:03;;;;;;;99.32;59.53;;;;;;;;;;4995938;28;25083;-66
2024/03/06 03:16:29;;;;;;;78.97;53.25;;;;;;;;;;4997647;28;25097;-66
2024/03/06 03:18:56;;;;;;;78.68;50.88;;;;;;;;;;4998483;28;25045;-66
2024/03/06 03:21:22;;;;;;;81.80;54.83;;;;;;;;;;5005471;28;25057;-66
2024/03/06 03:23:49;;;;;;;76.88;50.08;;;;;;;;;;5003789;28;25078;-66
2024/03/06 03:26:15;;;;;;;83.47;55.40;;;;;;;;;;5006852;28;25141;-66
2024/03/06 03:28:41;;;;;;;83.05;52.67;;;;;;;;;;4989968;28;25150;-68
2024/03/06 03:31:08;;;;;;;77.35;53.15;;;;;;;;;;5003267;28;25139;-67
2024/03/06 03:33:38;;;;;;;95.65;60.80;;;;;;;;;;4999357;28;25075;-66
2024/03/06 03:36:04;;;;;;;85.40;55.33;;;;;;;;;;5002989;28;24914;-65
2024/03/06 03:38:30;;;;;;;74.40;52.42;;;;;;;;;;4997564;28;25072;-67
2024/03/06 03:40:56;;;;;;;82.97;53.03;;;;;;;;;;5004569;28;25068;-67
2024/03/06 03:43:22;;;;;;;94.40;58.22;;;;;;;;;;5004980;28;25150;-66
2024/03/06 03:45:48;;;;;;;93.90;60.05;;;;;;;;;;5007030;28;25068;-68
2024/03/06 03:48:14;;;;;;;82.50;55.85;;;;;;;;;;5013851;28;25060;-66
2024/03/06 03:50:40;;;;;;;81.97;55.10;;;;;;;;;;5010173;28;25071;-67
2024/03/06 03:53:06;;;;;;;76.63;50.90;;;;;;;;;;5009482;28;25074;-69
2024/03/06 03:55:33;;;;;;;71.10;50.03;;;;;;;;;;5005546;28;25079;-68
2024/03/06 03:57:59;;;;;;;80.45;49.80;;;;;;;;;;4998904;28;25106;-66
2024/03/06 04:00:25;;;;;;;67.90;46.30;;;;;;;;;;5006021;28;25160;-67
2024/03/06 04:02:51;;;;;;;73.97;49.58;;;;;;;;;;5005833;28;25065;-67
2024/03/06 04:05:17;;;;;;;74.22;51.67;;;;;;;;;;4999111;28;25051;-66
2024/03/06 04:07:43;;;;;;;92.78;61.10;;;;;;;;;;5001386;28;25113;-66
2024/03/06 04:10:10;;;;;;;71.38;49.15;;;;;;;;;;5000036;28;25088;-69
2024/03/06 04:12:37;;;;;;;89.95;58.25;;;;;;;;;;4998272;28;25141;-69
2024/03/06 04:15:03;;;;;;;82.38;54.20;;;;;;;;;;5005217;28;25080;-67
2024/03/06 04:17:30;;;;;;;80.00;55.15;;;;;;;;;;4993730;28;25147;-66
2024/03/06 04:19:55;;;;;;;96.75;60.10;;;;;;;;;;5007172;28;25115;-65
2024/03/06 04:22:22;;;;;;;100.57;64.55;;;;;;;;;;4997813;28;25072;-66
2024/03/06 04:24:48;;;;;;;83.57;55.10;;;;;;;;;;4998841;28;25139;-67
2024/03/06 04:27:15;;;;;;;80.38;53.00;;;;;;;;;;5004160;28;25159;-65
2024/03/06 04:29:41;;;;;;;83.32;56.38;;;;;;;;;;5007686;28;25060;-66
2024/03/06 04:32:07;;;;;;;94.95;57.92;;;;;;;;;;5006634;28;25055;-67
2024/03/06 04:34:33;;;;;;;87.55;58.22;;;;;;;;;;5022847;28;25048;-68
2024/03/06 04:37:00;;;;;;;91.53;55.97;;;;;;;;;;5020160;28;25051;-67
2024/03/06 04:39:26;;;;;;;108.10;66.50;;;;;;;;;;5023025;28;25073;-67
2024/03/06 04:41:52;;;;;;;84.63;57.38;;;;;;;;;;5016146;28;25045;-68
2024/03/06 04:44:18;;;;;;;91.82;59.45;;;;;;;;;;5012063;28;25107;-65
2024/03/06 04:46:44;;;;;;;77.22;51.15;;;;;;;;;;4997338;28;25050;-67
2024/03/06 04:49:09;;;;;;;84.20;57.47;;;;;;;;;;5003445;28;25158;-69
2024/03/06 04:51:35;;;;;;;89.75;57.75;;;;;;;;;;4995318;28;25057;-66
2024/03/06 04:54:01;;;;;;;97.72;62.13;;;;;;;;;;4994796;28;25099;-67
2024/03/06 04:56:28;;;;;;;82.57;56.78;;;;;;;;;;5002063;28;25067;-67
2024/03/06 04:58:54;;;;;;;87.72;57.72;;;;;;;;;;5001027;28;25061;-68
2024/03/06 05:01:20;;;;;;;81.57;54.85;;;;;;;;;;5004834;28;25168;-67
2024/03/06 05:03:46;;;;;;;75.10;53.05;;;;;;;;;;4992707;28;25071;-66
2024/03/06 05:06:12;;;;;;;85.45;53.70;;;;;;;;;;4999282;28;25062;-67
2024/03/06 05:08:38;;;;;;;77.75;51.13;;;;;;;;;;4996802;28;25064;-69
2024/03/06 05:11:04;;;;;;;84.10;54.88;;;;;;;;;;5003680;28;25047;-66
2024/03/06 05:13:30;;;;;;;66.72;48.67;;;;;;;;;;4993581;28;25065;-67
2024/03/06 05:15:56;;;;;;;90.68;59.80;;;;;;;;;;4996955;28;25069;-67
2024/03/06 05:18:21;;;;;;;75.22;52.05;;;;;;;;;;4993551;28;25082;-71
2024/03/06 05:20:47;;;;;;;76.22;53.45;;;;;;;;;;5001017;28;25064;-67
2024/03/06 05:23:14;;;;;;;75.75;52.20;;;;;;;;;;4996585;28;25076;-67
2024/03/06 05:25:41;;;;;;;74.65;52.83;;;;;;;;;;4996383;28;25083;-67
2024/03/06 05:28:07;;;;;;;82.72;54.83;;;;;;;;;;4993264;28;25064;-67
2024/03/06 05:30:33;;;;;;;92.82;60.08;;;;;;;;;;4996668;28;25063;-66
2024/03/06 05:32:59;;;;;;;123.65;72.93;;;;;;;;;;4997154;28;25129;-68
2024/03/06 05:35:25;;;;;;;103.32;65.68;;;;;;;;;;4998071;28;25057;-67
2024/03/06 05:37:51;;;;;;;77.38;52.40;;;;;;;;;;4991462;28;25073;-67
2024/03/06 05:40:17;;;;;;;115.30;70.20;;;;;;;;;;4988950;28;25070;-66
2024/03/06 05:42:43;;;;;;;111.35;68.13;;;;;;;;;;4994164;28;25068;-66
2024/03/06 05:45:12;;;;;;;105.18;63.80;;;;;;;;;;4992093;28;25053;-69
2024/03/06 05:47:38;;;;;;;98.15;63.55;;;;;;;;;;4992493;28;25078;-66
2024/03/06 05:50:05;;;;;;;116.85;71.65;;;;;;;;;;5001787;28;25084;-66
2024/03/06 05:52:31;;;;;;;129.75;76.55;;;;;;;;;;4995236;28;25093;-67
2024/03/06 05:54:57;;;;;;;120.47;69.70;;;;;;;;;;4998044;28;25079;-68
2024/03/06 05:57:23;;;;;;;116.40;71.05;;;;;;;;;;4994224;28;25136;-66
2024/03/06 05:59:50;;;;;;;112.97;67.57;;;;;;;;;;4997865;28;25147;-67
2024/03/06 06:02:16;;;;;;;98.03;60.83;;;;;;;;;;4995573;28;25140;-66
2024/03/06 06:04:42;;;;;;;99.82;63.90;;;;;;;;;;4997964;28;25051;-68
2024/03/06 06:07:08;;;;;;;109.93;66.65;;;;;;;;;;5004096;28;25072;-73
2024/03/06 06:09:34;;;;;;;147.98;77.20;;;;;;;;;;4999963;28;25132;-66
2024/03/06 06:12:00;;;;;;;163.70;79.95;;;;;;;;;;4995707;28;25069;-68
2024/03/06 06:14:29;;;;;;;257.77;87.93;;;;;;;;;;4997971;28;25071;-67
2024/03/06 06:16:57;;;;;;;141.57;66.88;;;;;;;;;;5007340;28;25139;-67
2024/03/06 06:19:23;;;;;;;226.55;78.93;;;;;;;;;;5004698;28;25106;-67
2024/03/06 06:21:49;;;;;;;405.10;121.72;;;;;;;;;;5003634;28;25098;-68
2024/03/06 06:24:15;;;;;;;438.58;119.25;;;;;;;;;;4999560;28;25057;-66
2024/03/06 06:26:42;;;;;;;366.75;91.95;;;;;;;;;;5002888;28;25086;-68
2024/03/06 06:29:08;;;;;;;419.33;105.40;;;;;;;;;;5002114;28;25064;-66
2024/03/06 06:31:34;;;;;;;378.23;102.70;;;;;;;;;;5000779;28;25076;-67
2024/03/06 06:34:00;;;;;;;552.85;100.85;;;;;;;;;;5003330;28;25082;-67
2024/03/06 06:36:27;;;;;;;724.00;144.02;;;;;;;;;;5006547;28;25053;-69
2024/03/06 06:38:53;;;;;;;747.53;144.20;;;;;;;;;;5002716;28;25135;-68
2024/03/06 06:41:20;;;;;;;409.77;82.38;;;;;;;;;;5011668;28;25100;-66
2024/03/06 06:43:46;;;;;;;267.65;76.88;;;;;;;;;;5029412;28;25065;-68
2024/03/06 06:46:12;;;;;;;282.63;78.20;;;;;;;;;;5027760;28;25052;-68
2024/03/06 06:48:38;;;;;;;372.17;81.53;;;;;;;;;;5021153;28;25057;-70
2024/03/06 06:51:04;;;;;;;294.75;72.28;;;;;;;;;;5013554;28;25088;-69
2024/03/06 06:53:30;;;;;;;469.35;92.07;;;;;;;;;;5003111;28;25065;-66
2024/03/06 06:55:57;;;;;;;315.85;74.00;;;;;;;;;;5010398;28;25062;-66
2024/03/06 06:58:23;;;;;;;181.30;59.90;;;;;;;;;;5008693;28;25081;-66
2024/03/06 07:00:49;;;;;;;227.85;60.33;;;;;;;;;;5014102;28;25073;-67
2024/03/06 07:03:16;;;;;;;217.15;65.43;;;;;;;;;;5011877;28;25072;-68
2024/03/06 07:05:42;;;;;;;147.07;62.08;;;;;;;;;;5008611;28;25100;-69
2024/03/06 07:08:08;;;;;;;110.13;51.13;;;;;;;;;;4999659;28;25054;-69
2024/03/06 07:10:35;;;;;;;115.05;53.72;;;;;;;;;;5006632;28;25102;-67
2024/03/06 07:13:02;;;;;;;105.30;56.20;;;;;;;;;;5001968;28;25058;-68
2024/03/06 07:15:28;;;;;;;125.50;59.45;;;;;;;;;;5003385;28;25170;-66
2024/03/06 07:17:54;;;;;;;120.03;58.75;;;;;;;;;;5008749;28;25089;-69
2024/03/06 07:20:20;;;;;;;116.68;54.60;;;;;;;;;;5002135;28;25124;-67
2024/03/06 07:22:46;;;;;;;130.35;52.58;;;;;;;;;;5000724;28;25107;-67
2024/03/06 07:25:13;;;;;;;81.40;49.72;;;;;;;;;;4998573;28;25075;-68
2024/03/06 07:27:39;;;;;;;185.88;57.25;;;;;;;;;;4995953;28;25115;-72
2024/03/06 07:30:06;;;;;;;200.85;56.05;;;;;;;;;;4993017;28;25049;-68
2024/03/06 07:32:32;;;;;;;209.05;58.08;;;;;;;;;;4997352;28;25068;-68
2024/03/06 07:34:59;;;;;;;149.30;59.80;;;;;;;;;;5005117;28;25057;-66
2024/03/06 07:37:25;;;;;;;148.20;61.13;;;;;;;;;;5000778;28;25066;-66
2024/03/06 07:39:51;;;;;;;165.35;54.30;;;;;;;;;;4999207;28;25075;-67
2024/03/06 07:42:17;;;;;;;112.35;44.13;;;;;;;;;;5000439;28;25055;-68
2024/03/06 07:44:43;;;;;;;274.73;64.22;;;;;;;;;;5000854;28;25051;-68
2024/03/06 07:47:10;;;;;;;381.60;83.60;;;;;;;;;;4997725;28;25055;-72
2024/03/06 07:49:36;;;;;;;195.45;56.92;;;;;;;;;;5006928;28;25057;-67
2024/03/06 07:52:02;;;;;;;67.93;30.08;;;;;;;;;;4999030;28;25156;-67
2024/03/06 07:54:28;;;;;;;171.65;59.33;;;;;;;;;;5002852;28;25072;-70
2024/03/06 07:56:54;;;;;;;234.65;56.20;;;;;;;;;;4998479;28;25089;-65
2024/03/06 07:59:20;;;;;;;126.88;46.65;;;;;;;;;;5004507;28;25066;-68
2024/03/06 08:01:46;;;;;;;140.32;57.47;;;;;;;;;;5005964;28;25065;-68
2024/03/06 08:04:12;;;;;;;111.70;46.63;;;;;;;;;;4992339;28;25067;-67
2024/03/06 08:06:38;;;;;;;75.50;45.58;;;;;;;;;;4997375;28;25069;-68
2024/03/06 08:09:04;;;;;;;82.75;49.30;;;;;;;;;;4991132;28;25051;-67
2024/03/06 08:11:30;;;;;;;67.32;45.70;;;;;;;;;;5003552;28;25143;-67
2024/03/06 08:13:59;;;;;;;71.82;48.60;;;;;;;;;;5003182;28;25139;-66
2024/03/06 08:16:25;;;;;;;81.05;54.60;;;;;;;;;;5000897;28;25100;-71
2024/03/06 08:18:51;;;;;;;66.43;47.65;;;;;;;;;;5003902;28;25071;-68
2024/03/06 08:21:19;;;;;;;55.95;41.00;;;;;;;;;;5005918;28;25061;-68
2024/03/06 08:23:47;;;;;;;60.38;41.35;;;;;;;;;;5000216;28;25192;-68
2024/03/06 08:26:13;;;;;;;41.60;32.28;;;;;;;;;;5003998;28;25050;-66
2024/03/06 08:28:39;;;;;;;55.42;41.03;;;;;;;;;;4993971;28;25107;-66
2024/03/06 08:31:05;;;;;;;51.25;39.90;;;;;;;;;;4998954;28;25128;-68
2024/03/06 08:33:31;;;;;;;45.90;37.65;;;;;;;;;;4996051;28;25098;-66
2024/03/06 08:35:57;;;;;;;42.47;34.65;;;;;;;;;;5006720;28;25144;-68
2024/03/06 08:38:23;;;;;;;45.40;36.55;;;;;;;;;;5006110;28;25075;-67
2024/03/06 08:40:50;;;;;;;48.13;36.30;;;;;;;;;;5003806;28;25076;-67
2024/03/06 08:43:16;;;;;;;41.10;33.83;;;;;;;;;;5022414;28;25144;-68
2024/03/06 08:45:42;;;;;;;42.92;34.20;;;;;;;;;;5029797;28;25140;-67
2024/03/06 08:48:09;;;;;;;41.20;32.42;;;;;;;;;;5009942;28;25127;-69
2024/03/06 08:50:35;;;;;;;45.35;34.10;;;;;;;;;;5002332;28;25079;-66
2024/03/06 08:53:04;;;;;;;36.58;30.50;;;;;;;;;;4999673;28;25107;-67
2024/03/06 08:55:30;;;;;;;42.42;33.13;;;;;;;;;;5002466;28;25067;-67
2024/03/06 08:57:56;;;;;;;35.72;30.70;;;;;;;;;;5016628;28;25052;-66
2024/03/06 09:00:22;;;;;;;37.63;31.60;;;;;;;;;;5024564;28;25076;-67
2024/03/06 09:02:49;;;;;;;40.63;27.50;;;;;;;;;;5024969;28;25056;-70
2024/03/06 09:05:15;;;;;;;33.58;24.98;;;;;;;;;;5027575;28;25060;-70
2024/03/06 09:07:41;;;;;;;33.10;26.88;;;;;;;;;;5010486;28;25059;-68
2024/03/06 09:10:08;;;;;;;32.25;25.88;;;;;;;;;;5008247;28;25060;-68
2024/03/06 09:12:34;;;;;;;30.63;23.55;;;;;;;;;;5006115;28;25061;-68
2024/03/06 09:15:00;;;;;;;25.35;20.83;;;;;;;;;;4994052;28;25070;-67
2024/03/06 09:17:26;;;;;;;29.63;22.45;;;;;;;;;;4995999;28;25124;-67
2024/03/06 09:19:52;;;;;;;29.83;22.85;;;;;;;;;;4996396;28;25088;-68
2024/03/06 09:22:18;;;;;;;26.25;21.40;;;;;;;;;;4994567;28;25091;-66
2024/03/06 09:24:44;;;;;;;24.02;21.20;;;;;;;;;;4995595;28;25097;-68
2024/03/06 09:27:10;;;;;;;27.58;21.33;;;;;;;;;;4992267;28;25062;-68
2024/03/06 09:29:36;;;;;;;31.73;23.60;;;;;;;;;;4995143;28;25094;-69
2024/03/06 09:32:02;;;;;;;26.55;19.67;;;;;;;;;;4994119;28;25060;-68
2024/03/06 09:34:28;;;;;;;21.98;17.77;;;;;;;;;;4995025;28;25182;-68
2024/03/06 09:36:54;;;;;;;22.75;15.77;;;;;;;;;;4997009;28;25089;-67
2024/03/06 09:39:20;;;;;;;20.45;16.90;;;;;;;;;;4999903;28;25148;-68
2024/03/06 09:41:55;;;;;;;21.73;17.38;;;;;;;;;;4999363;28;25056;-68
2024/03/06 09:44:21;;;;;;;20.42;14.63;;;;;;;;;;4998669;28;25049;-68
2024/03/06 09:46:48;;;;;;;24.02;16.67;;;;;;;;;;4999184;28;25101;-65
2024/03/06 09:49:18;;;;;;;20.52;15.15;;;;;;;;;;5002410;28;25067;-66
2024/03/06 09:51:52;;;;;;;18.58;15.05;;;;;;;;;;4997994;28;25141;-66
2024/03/06 09:54:19;;;;;;;20.40;16.55;;;;;;;;;;5002156;28;25056;-66
2024/03/06 09:56:45;;;;;;;19.25;15.25;;;;;;;;;;4998016;28;25163;-70
2024/03/06 09:59:12;;;;;;;18.17;14.35;;;;;;;;;;4991483;28;25056;-66
2024/03/06 10:01:48;;;;;;;17.83;13.95;;;;;;;;;;4999224;28;25069;-68
2024/03/06 10:04:21;;;;;;;19.08;14.38;;;;;;;;;;4998238;28;25078;-67
2024/03/06 10:06:47;;;;;;;13.95;12.48;;;;;;;;;;4999300;28;25072;-67
2024/03/06 10:09:16;;;;;;;13.27;11.77;;;;;;;;;;4994015;28;25058;-67
2024/03/06 10:11:42;;;;;;;17.10;12.55;;;;;;;;;;4998131;28;25064;-66
2024/03/06 10:14:12;;;;;;;17.00;13.77;;;;;;;;;;4999577;28;25100;-67
2024/03/06 10:16:38;;;;;;;15.05;13.07;;;;;;;;;;4994072;28;25070;-68
2024/03/06 10:19:18;;;;;;;12.60;10.60;;;;;;;;;;4990938;28;25047;-66
2024/03/06 10:21:45;;;;;;;13.63;11.88;;;;;;;;;;4996099;28;25054;-66
2024/03/06 10:24:11;;;;;;;13.68;12.15;;;;;;;;;;4992471;28;25101;-68
2024/03/06 10:26:37;;;;;;;14.75;13.07;;;;;;;;;;4985896;28;25066;-66
2024/03/06 10:29:03;;;;;;;15.38;12.65;;;;;;;;;;4994038;28;25087;-67
2024/03/06 10:31:29;;;;;;;14.13;11.48;;;;;;;;;;4990637;28;25080;-67
2024/03/06 10:33:55;;;;;;;12.07;10.80;;;;;;;;;;4997636;28;25064;-68
2024/03/06 10:36:21;;;;;;;15.05;10.98;;;;;;;;;;4995174;28;25095;-68
2024/03/06 10:38:49;;;;;;;19.80;12.43;;;;;;;;;;5000470;28;25082;-66
2024/03/06 10:41:15;;;;;;;13.60;12.15;;;;;;;;;;4995603;28;25050;-68
2024/03/06 10:43:43;;;;;;;16.33;12.13;;;;;;;;;;4994848;28;25064;-66
2024/03/06 10:46:11;;;;;;;12.85;11.30;;;;;;;;;;5000587;28;25107;-67
2024/03/06 10:48:38;;;;;;;14.02;12.52;;;;;;;;;;4993460;28;25087;-66
2024/03/06 10:51:04;;;;;;;15.63;11.57;;;;;;;;;;4998855;28;25129;-65
2024/03/06 10:53:30;;;;;;;14.63;12.50;;;;;;;;;;4995799;28;25054;-64
2024/03/06 10:55:57;;;;;;;14.70;13.18;;;;;;;;;;4996084;28;25150;-66
2024/03/06 10:58:24;;;;;;;19.27;14.00;;;;;;;;;;4996176;28;25118;-66
2024/03/06 11:00:51;;;;;;;15.82;12.93;;;;;;;;;;5000095;28;25123;-67
2024/03/06 11:03:18;;;;;;;16.55;13.00;;;;;;;;;;4999105;28;25077;-67
2024/03/06 11:05:46;;;;;;;16.70;13.85;;;;;;;;;;5002235;28;25051;-66
2024/03/06 11:08:13;;;;;;;17.83;14.27;;;;;;;;;;5000726;28;24902;-65
2024/03/06 11:10:40;;;;;;;19.23;14.85;;;;;;;;;;5002037;28;25084;-65
2024/03/06 11:13:28;;;;;;;19.15;14.30;;;;;;;;;;5004341;28;25135;-67
2024/03/06 11:15:59;;;;;;;16.50;13.48;;;;;;;;;;5003127;28;25079;-65
2024/03/06 11:18:36;;;;;;;12.48;11.18;;;;;;;;;;4999083;28;25131;-65
2024/03/06 11:21:02;;;;;;;15.15;12.23;;;;;;;;;;5005006;28;25056;-66
2024/03/06 11:23:28;;;;;;;16.17;13.32;;;;;;;;;;5006424;28;25057;-68
2024/03/06 11:25:54;;;;;;;15.43;12.70;;;;;;;;;;5025050;28;25064;-67
2024/03/06 11:28:21;;;;;;;15.07;13.48;;;;;;;;;;5025522;28;25065;-68
2024/03/06 11:30:47;;;;;;;14.48;12.85;;;;;;;;;;5026292;28;25060;-71
2024/03/06 11:33:17;;;;;;;14.75;13.00;;;;;;;;;;5014520;28;25113;-66
2024/03/06 11:35:48;;;;;;;15.68;12.77;;;;;;;;;;5002909;28;25069;-67
2024/03/06 11:38:17;;;;;;;15.90;13.13;;;;;;;;;;5000141;28;25080;-66
2024/03/06 11:40:44;;;;;;;16.58;12.13;;;;;;;;;;5007317;28;25070;-66
2024/03/06 11:43:26;;;;;;;11.98;9.90;;;;;;;;;;5004341;28;25109;-66
2024/03/06 11:45:52;;;;;;;17.15;12.63;;;;;;;;;;4999611;28;25095;-67
2024/03/06 11:48:22;;;;;;;13.48;11.90;;;;;;;;;;5003295;28;25076;-67
2024/03/06 11:50:48;;;;;;;13.13;9.45;;;;;;;;;;5004500;28;25063;-67
2024/03/06 11:53:15;;;;;;;12.32;9.15;;;;;;;;;;4996442;28;25075;-65
2024/03/06 11:55:41;;;;;;;8.85;7.95;;;;;;;;;;4993843;28;25067;-66
2024/03/06 11:58:08;;;;;;;8.43;7.45;;;;;;;;;;5003244;28;25082;-68
2024/03/06 12:00:34;;;;;;;9.32;7.78;;;;;;;;;;4991770;28;25150;-65
2024/03/06 12:03:00;;;;;;;8.15;7.05;;;;;;;;;;4996990;28;25059;-65
2024/03/06 12:05:27;;;;;;;10.80;8.20;;;;;;;;;;4996152;28;25048;-67
2024/03/06 12:07:54;;;;;;;6.40;5.80;;;;;;;;;;4996387;28;25071;-66
2024/03/06 12:10:20;;;;;;;9.63;6.65;;;;;;;;;;4995465;28;25081;-68
2024/03/06 12:12:46;;;;;;;11.15;7.43;;;;;;;;;;4998294;28;25083;-67
2024/03/06 12:15:14;;;;;;;8.65;6.97;;;;;;;;;;5001436;28;25076;-67
2024/03/06 12:17:48;;;;;;;9.57;7.43;;;;;;;;;;4993301;28;25131;-67
2024/03/06 12:20:18;;;;;;;6.45;5.82;;;;;;;;;;5001819;28;25134;-65
2024/03/06 12:22:51;;;;;;;7.35;6.47;;;;;;;;;;4995452;28;25061;-65
2024/03/06 12:25:23;;;;;;;7.50;6.78;;;;;;;;;;4998727;28;25071;-65
2024/03/06 12:27:50;;;;;;;7.85;7.00;;;;;;;;;;4993323;28;25063;-66
2024/03/06 12:30:20;;;;;;;9.75;8.20;;;;;;;;;;4989199;28;25069;-67
2024/03/06 12:32:56;;;;;;;10.50;8.25;;;;;;;;;;4995904;28;25073;-66
2024/03/06 12:35:28;;;;;;;9.52;8.15;;;;;;;;;;4993162;28;25127;-65
2024/03/06 12:37:54;;;;;;;9.02;7.57;;;;;;;;;;4999680;28;25076;-66
2024/03/06 12:40:21;;;;;;;8.25;7.38;;;;;;;;;;4992119;28;25133;-67
2024/03/06 12:42:47;;;;;;;9.00;7.35;;;;;;;;;;4999261;28;25057;-67
2024/03/06 12:45:13;;;;;;;7.82;7.05;;;;;;;;;;4994206;28;25055;-67
2024/03/06 12:47:42;;;;;;;12.13;7.47;;;;;;;;;;5003109;28;25098;-66
2024/03/06 12:50:10;;;;;;;11.07;7.22;;;;;;;;;;5002368;28;25060;-68
2024/03/06 12:52:36;;;;;;;8.48;7.65;;;;;;;;;;5000874;28;25056;-67
2024/03/06 12:55:04;;;;;;;8.70;7.80;;;;;;;;;;5006490;28;24921;-67
2024/03/06 12:57:31;;;;;;;8.18;6.60;;;;;;;;;;5003248;28;25137;-65
2024/03/06 12:59:57;;;;;;;9.60;7.40;;;;;;;;;;4997153;28;25100;-66
2024/03/06 13:02:22;;;;;;;8.07;7.22;;;;;;;;;;4996050;28;25145;-67
2024/03/06 13:04:48;;;;;;;8.85;6.68;;;;;;;;;;4996649;28;25074;-68
2024/03/06 13:07:15;;;;;;;6.60;5.90;;;;;;;;;;5004013;28;24659;-65
2024/03/06 13:09:41;;;;;;;8.32;7.07;;;;;;;;;;5000177;28;25077;-67
2024/03/06 13:12:07;;;;;;;8.98;6.70;;;;;;;;;;5002601;28;25052;-66
2024/03/06 13:14:33;;;;;;;8.27;6.60;;;;;;;;;;4994947;28;25071;-67
2024/03/06 13:17:00;;;;;;;7.85;5.88;;;;;;;;;;5000266;28;25082;-67
2024/03/06 13:19:26;;;;;;;7.88;6.13;;;;;;;;;;4996343;28;25081;-68
2024/03/06 13:21:52;;;;;;;7.05;6.38;;;;;;;;;;4996663;28;25045;-67
2024/03/06 13:24:19;;;;;;;7.88;6.45;;;;;;;;;;5003549;28;25070;-67
2024/03/06 13:26:45;;;;;;;7.93;6.22;;;;;;;;;;5005935;28;25045;-67
2024/03/06 13:29:11;;;;;;;8.30;6.18;;;;;;;;;;4998291;28;25153;-67
2024/03/06 13:31:37;;;;;;;8.15;6.28;;;;;;;;;;4998183;28;25102;-67
2024/03/06 13:34:04;;;;;;;9.35;7.07;;;;;;;;;;5003713;28;25128;-65
2024/03/06 13:36:30;;;;;;;7.07;6.38;;;;;;;;;;4999389;28;25133;-66
2024/03/06 13:38:56;;;;;;;9.60;6.40;;;;;;;;;;5000602;28;25056;-67
2024/03/06 13:41:23;;;;;;;7.97;6.10;;;;;;;;;;4999504;28;25040;-67
2024/03/06 13:43:49;;;;;;;8.82;6.70;;;;;;;;;;5008531;28;25103;-64
2024/03/06 13:46:15;;;;;;;6.97;6.28;;;;;;;;;;5003265;28;25180;-70
2024/03/06 13:48:41;;;;;;;7.93;6.50;;;;;;;;;;5012023;28;25077;-66
2024/03/06 13:51:07;;;;;;;10.77;7.57;;;;;;;;;;5018814;28;25063;-66
2024/03/06 13:53:33;;;;;;;12.07;6.90;;;;;;;;;;5028001;28;25110;-66
2024/03/06 13:55:59;;;;;;;9.25;7.10;;;;;;;;;;5022957;28;25082;-65
2024/03/06 13:58:26;;;;;;;7.90;7.10;;;;;;;;;;5023852;28;25093;-65
2024/03/06 14:00:52;;;;;;;7.47;6.78;;;;;;;;;;5006151;28;25063;-67
2024/03/06 14:03:18;;;;;;;8.05;6.68;;;;;;;;;;5001978;28;24924;-66
2024/03/06 14:05:44;;;;;;;7.85;6.43;;;;;;;;;;5006957;28;25124;-67
2024/03/06 14:08:11;;;;;;;7.90;6.82;;;;;;;;;;5002655;28;25046;-67
2024/03/06 14:10:39;;;;;;;6.97;6.28;;;;;;;;;;5005622;28;25106;-66
2024/03/06 14:13:06;;;;;;;9.05;6.40;;;;;;;;;;5003769;28;25055;-65
2024/03/06 14:15:32;;;;;;;10.52;6.82;;;;;;;;;;5002420;28;25050;-66